Time;durP1;ratioP1;P1;durP2;ratioP2;P2;SDS_P1;SDS_P2;PMS_P1;PMS_P2;Temp;Humidity;BMP_temperature;BMP_pressure;BME280_temperature;BME280_humidity;BME280_pressure;Samples;Min_cycle;Max_cycle;Signal;HPM_P1;HPM_P2
2021/01/28 00:00:42;;;;;;;1999.90;999.90;;;5.70;99.90;;;;;;5053851;28;20180;-83
2021/01/28 00:03:09;;;;;;;1999.90;999.90;;;5.70;99.90;;;;;;5053830;28;20442;-83
2021/01/28 00:05:38;;;;;;;1999.90;999.90;;;5.60;99.90;;;;;;5054076;28;20175;-83
2021/01/28 00:08:05;;;;;;;1999.90;999.90;;;5.60;99.90;;;;;;5053796;28;20167;-83
2021/01/28 00:10:31;;;;;;;1999.90;999.90;;;5.60;99.90;;;;;;5055225;28;20165;-84
2021/01/28 00:12:59;;;;;;;1999.90;999.90;;;5.60;99.90;;;;;;5053958;28;20175;-83
2021/01/28 00:15:28;;;;;;;1999.90;999.90;;;5.60;99.90;;;;;;5053895;28;20166;-83
2021/01/28 00:17:54;;;;;;;1999.90;999.90;;;5.50;99.90;;;;;;5053930;28;20527;-84
2021/01/28 00:20:27;;;;;;;1999.90;999.90;;;5.60;99.90;;;;;;5053808;28;20165;-84
2021/01/28 00:22:56;;;;;;;1999.90;999.90;;;5.60;99.90;;;;;;5054705;28;20152;-83
2021/01/28 00:25:23;;;;;;;1999.90;999.90;;;5.60;99.90;;;;;;5055069;28;20165;-83
2021/01/28 00:27:50;;;;;;;1999.90;999.90;;;5.60;99.90;;;;;;5055330;28;20156;-83
2021/01/28 00:30:21;;;;;;;1999.90;999.90;;;5.60;99.90;;;;;;5054627;28;20215;-84
2021/01/28 00:32:48;;;;;;;1999.90;999.90;;;5.60;99.90;;;;;;5054556;28;20195;-83
2021/01/28 00:35:24;;;;;;;1999.90;999.90;;;5.60;99.90;;;;;;5055080;28;20169;-83
2021/01/28 00:37:49;;;;;;;1999.90;999.90;;;5.60;99.90;;;;;;5055004;28;20227;-83
2021/01/28 00:40:15;;;;;;;1999.90;999.90;;;5.60;99.90;;;;;;5054926;28;20168;-84
2021/01/28 00:42:41;;;;;;;1999.90;999.90;;;5.60;99.90;;;;;;5054785;28;20671;-84
2021/01/28 00:45:07;;;;;;;1999.90;999.90;;;5.60;99.90;;;;;;5053815;28;20255;-84
2021/01/28 00:47:33;;;;;;;1999.90;999.90;;;5.60;99.90;;;;;;5053586;28;20534;-84
2021/01/28 00:49:59;;;;;;;1999.90;999.90;;;5.60;99.90;;;;;;5053397;28;20182;-84
2021/01/28 00:52:24;;;;;;;1999.90;999.90;;;5.60;99.90;;;;;;5053784;28;20164;-83
2021/01/28 00:54:50;;;;;;;1999.90;999.90;;;5.60;99.90;;;;;;5054385;28;20558;-84
2021/01/28 00:57:16;;;;;;;1999.90;999.90;;;5.60;99.90;;;;;;5053708;28;20663;-84
2021/01/28 00:59:41;;;;;;;1999.90;999.90;;;5.60;99.90;;;;;;5053533;28;20173;-84
2021/01/28 01:02:07;;;;;;;1999.90;999.90;;;5.60;99.90;;;;;;5054481;28;20230;-84
2021/01/28 01:04:33;;;;;;;1999.90;999.90;;;5.60;99.90;;;;;;5054773;28;20573;-83
2021/01/28 01:06:58;;;;;;;1999.90;999.90;;;5.60;99.90;;;;;;5052879;28;20178;-84
2021/01/28 01:09:26;;;;;;;1999.90;999.90;;;5.60;99.90;;;;;;5054627;28;20527;-84
2021/01/28 01:11:53;;;;;;;1999.90;999.90;;;5.50;99.90;;;;;;5053714;28;20169;-84
2021/01/28 01:14:19;;;;;;;1999.90;999.90;;;5.50;99.90;;;;;;5053155;28;20164;-83
2021/01/28 01:16:45;;;;;;;1999.90;999.90;;;5.50;99.90;;;;;;5053450;28;20557;-84
2021/01/28 01:19:12;;;;;;;1999.90;999.90;;;5.50;99.90;;;;;;5055106;28;20175;-84
2021/01/28 01:21:37;;;;;;;1999.90;999.90;;;5.50;99.90;;;;;;5054002;28;20238;-84
2021/01/28 01:24:03;;;;;;;1999.90;999.90;;;5.50;99.90;;;;;;5055780;28;20157;-83
2021/01/28 01:26:29;;;;;;;1999.90;999.90;;;5.50;99.90;;;;;;5053163;28;20165;-85
2021/01/28 01:28:55;;;;;;;1999.90;999.90;;;5.50;99.90;;;;;;5055384;28;20675;-83
2021/01/28 01:31:20;;;;;;;1999.90;999.90;;;5.50;99.90;;;;;;5054408;28;20275;-84
2021/01/28 01:33:46;;;;;;;1999.90;999.90;;;5.50;99.90;;;;;;5053872;28;20173;-83
2021/01/28 01:36:12;;;;;;;1999.90;999.90;;;5.50;99.90;;;;;;5054653;28;20635;-83
2021/01/28 01:38:37;;;;;;;1999.90;999.90;;;5.50;99.90;;;;;;5053845;28;20303;-84
2021/01/28 01:41:03;;;;;;;1999.90;999.90;;;5.50;99.90;;;;;;5054721;28;20530;-85
2021/01/28 01:43:29;;;;;;;1999.90;999.90;;;5.50;99.90;;;;;;5054453;28;20168;-83
2021/01/28 01:46:04;;;;;;;1999.90;999.90;;;5.60;99.90;;;;;;5053784;28;20399;-84
2021/01/28 01:48:36;;;;;;;1999.90;999.90;;;5.60;99.90;;;;;;5052859;28;20182;-84
2021/01/28 01:51:06;;;;;;;1999.90;999.90;;;5.50;99.90;;;;;;5052878;28;20169;-84
2021/01/28 01:53:54;;;;;;;1999.90;999.90;;;5.60;99.90;;;;;;5054545;28;20173;-84
2021/01/28 01:56:32;;;;;;;1999.90;999.90;;;5.60;99.90;;;;;;5053717;28;20559;-84
2021/01/28 01:59:14;;;;;;;1999.90;999.90;;;5.60;99.90;;;;;;5054394;28;20151;-84
2021/01/28 02:01:49;;;;;;;1999.90;999.90;;;5.50;99.90;;;;;;5053167;28;20559;-84
2021/01/28 02:04:17;;;;;;;1999.90;999.90;;;5.50;99.90;;;;;;5054633;28;20156;-83
2021/01/28 02:06:47;;;;;;;1999.90;999.90;;;5.40;99.90;;;;;;5058660;28;20191;-84
2021/01/28 02:09:14;;;;;;;1999.90;999.90;;;5.40;99.90;;;;;;5057488;28;20179;-84
2021/01/28 02:11:41;;;;;;;1999.90;999.90;;;5.40;99.90;;;;;;5058420;28;20620;-84
2021/01/28 02:14:09;;;;;;;1999.90;999.90;;;5.40;99.90;;;;;;5058076;28;20171;-84
2021/01/28 02:16:40;;;;;;;1999.90;999.90;;;5.40;99.90;;;;;;5058472;28;20192;-84
2021/01/28 02:19:29;;;;;;;1999.90;999.90;;;5.40;99.90;;;;;;5056995;28;20157;-84
2021/01/28 02:21:54;;;;;;;1999.90;999.90;;;5.50;99.90;;;;;;5058402;28;20585;-84
2021/01/28 02:24:23;;;;;;;1999.90;999.90;;;5.50;99.90;;;;;;5056892;28;20168;-84
2021/01/28 02:26:50;;;;;;;1999.90;999.90;;;5.50;99.90;;;;;;5056609;28;20165;-84
2021/01/28 02:29:19;;;;;;;1999.90;999.90;;;5.50;99.90;;;;;;5057370;28;20160;-84
2021/01/28 02:31:48;;;;;;;1999.90;999.90;;;5.50;99.90;;;;;;5110906;22;20221;-80
2021/01/28 02:34:14;;;;;;;1999.90;999.90;;;5.50;99.90;;;;;;5041981;28;20663;-79
2021/01/28 02:36:46;;;;;;;1999.90;999.90;;;5.50;99.90;;;;;;5041531;28;20571;-79
2021/01/28 02:39:14;;;;;;;1999.90;999.90;;;5.50;99.90;;;;;;5042047;28;20609;-79
2021/01/28 02:41:42;;;;;;;1999.90;999.90;;;5.50;99.90;;;;;;5041362;28;20276;-79
2021/01/28 02:44:09;;;;;;;1999.90;999.90;;;5.50;99.90;;;;;;5041768;28;20188;-79
2021/01/28 02:46:35;;;;;;;1999.90;999.90;;;5.50;99.90;;;;;;5023515;28;20173;-79
2021/01/28 02:49:01;;;;;;;1999.90;999.90;;;5.50;99.90;;;;;;5041847;28;20164;-79
2021/01/28 02:51:29;;;;;;;1999.90;999.90;;;5.50;99.90;;;;;;5042276;28;20591;-79
2021/01/28 02:53:59;;;;;;;1999.90;999.90;;;5.40;99.90;;;;;;5042438;28;20423;-79
2021/01/28 02:56:26;;;;;;;1999.90;999.90;;;5.40;99.90;;;;;;5041804;28;20248;-79
2021/01/28 02:58:52;;;;;;;1999.90;999.90;;;5.40;99.90;;;;;;5041581;28;20172;-79
2021/01/28 03:01:19;;;;;;;1999.90;999.90;;;5.40;99.90;;;;;;5041424;28;20687;-79
2021/01/28 03:03:45;;;;;;;1999.90;999.90;;;5.30;99.90;;;;;;5040884;28;20848;-79
2021/01/28 03:06:12;;;;;;;1999.90;999.90;;;5.30;99.90;;;;;;5041723;28;20201;-79
2021/01/28 03:08:38;;;;;;;1999.90;999.90;;;5.30;99.90;;;;;;5041057;28;20165;-79
2021/01/28 03:11:04;;;;;;;1999.90;999.90;;;5.20;99.90;;;;;;5041413;28;20173;-79
2021/01/28 03:13:30;;;;;;;1999.90;999.90;;;5.20;99.90;;;;;;5041908;28;20200;-79
2021/01/28 03:15:57;;;;;;;1999.90;999.90;;;5.20;99.90;;;;;;5041089;28;20248;-79
2021/01/28 03:18:23;;;;;;;1999.90;999.90;;;5.20;99.90;;;;;;5040501;28;20434;-79
2021/01/28 03:20:51;;;;;;;1999.90;999.90;;;5.20;99.90;;;;;;5040208;28;20174;-79
2021/01/28 03:23:17;;;;;;;1999.90;999.90;;;5.30;99.90;;;;;;5040690;28;20164;-79
2021/01/28 03:25:43;;;;;;;1999.90;999.90;;;5.20;99.90;;;;;;5023013;28;20233;-79
2021/01/28 03:28:09;;;;;;;1999.90;999.90;;;5.20;99.90;;;;;;5040488;28;20193;-79
2021/01/28 03:30:44;;;;;;;1999.90;999.90;;;5.20;99.90;;;;;;5022925;28;20173;-79
2021/01/28 03:33:13;;;;;;;1999.90;999.90;;;5.20;99.90;;;;;;5041341;28;20171;-79
2021/01/28 03:35:39;;;;;;;1999.90;999.90;;;5.20;99.90;;;;;;5041027;28;20580;-79
2021/01/28 03:38:07;;;;;;;1999.90;999.90;;;5.20;99.90;;;;;;5039890;28;20165;-79
2021/01/28 03:40:34;;;;;;;1999.90;999.90;;;5.20;99.90;;;;;;5020878;28;20184;-79
2021/01/28 03:43:00;;;;;;;1999.90;999.90;;;5.20;99.90;;;;;;5039406;28;20254;-79
2021/01/28 03:45:27;;;;;;;1999.90;999.90;;;5.20;99.90;;;;;;5039569;28;20223;-79
2021/01/28 03:47:54;;;;;;;1999.90;999.90;;;5.20;99.90;;;;;;5039383;28;20211;-79
2021/01/28 03:50:25;;;;;;;1999.90;999.90;;;5.20;99.90;;;;;;5038520;28;20166;-79
2021/01/28 03:52:51;;;;;;;1999.90;999.90;;;5.20;99.90;;;;;;5039495;28;20150;-79
2021/01/28 03:55:17;;;;;;;1999.90;999.90;;;5.20;99.90;;;;;;5038917;28;20180;-79
2021/01/28 03:57:46;;;;;;;1999.90;999.90;;;5.20;99.90;;;;;;5039125;28;20173;-79
2021/01/28 04:00:14;;;;;;;1999.90;999.90;;;5.20;99.90;;;;;;5021567;28;20707;-79
2021/01/28 04:02:41;;;;;;;1999.90;999.90;;;5.20;99.90;;;;;;5040092;28;20180;-79
2021/01/28 04:05:07;;;;;;;1999.90;999.90;;;5.10;99.90;;;;;;5040020;28;20172;-79
2021/01/28 04:07:33;;;;;;;1999.90;999.90;;;5.10;99.90;;;;;;5039437;28;20169;-79
2021/01/28 04:09:58;;;;;;;1999.90;999.90;;;5.10;99.90;;;;;;5039008;28;20161;-79
2021/01/28 04:12:24;;;;;;;1999.90;999.90;;;5.10;99.90;;;;;;5039235;28;20161;-79
2021/01/28 04:14:50;;;;;;;1999.90;999.90;;;5.00;99.90;;;;;;5020723;28;20173;-79
2021/01/28 04:17:15;;;;;;;1999.90;999.90;;;5.00;99.90;;;;;;5039182;28;20204;-79
2021/01/28 04:19:41;;;;;;;1999.90;999.90;;;5.00;99.90;;;;;;5020901;28;20239;-79
2021/01/28 04:22:07;;;;;;;1999.90;999.90;;;5.00;99.90;;;;;;5039155;28;20201;-79
2021/01/28 04:24:32;;;;;;;1999.90;999.90;;;5.00;99.90;;;;;;5021369;28;20184;-79
2021/01/28 04:26:58;;;;;;;1999.90;999.90;;;5.00;99.90;;;;;;5038974;28;20679;-79
2021/01/28 04:29:24;;;;;;;1999.90;999.90;;;5.00;99.90;;;;;;5039092;28;20145;-79
2021/01/28 04:31:50;;;;;;;1999.90;999.90;;;4.90;99.90;;;;;;5037697;28;20909;-79
2021/01/28 04:34:15;;;;;;;1999.90;999.90;;;4.90;99.90;;;;;;5021165;28;20165;-79
2021/01/28 04:36:41;;;;;;;1999.90;999.90;;;4.90;99.90;;;;;;5038138;28;20168;-79
2021/01/28 04:39:06;;;;;;;1999.90;999.90;;;4.90;99.90;;;;;;5037567;28;20162;-79
2021/01/28 04:41:34;;;;;;;1999.90;999.90;;;4.90;99.90;;;;;;5037092;28;20219;-79
2021/01/28 04:44:01;;;;;;;1999.90;999.90;;;5.00;99.90;;;;;;5037289;28;20175;-79
2021/01/28 04:46:42;;;;;;;1999.90;999.90;;;4.90;99.90;;;;;;5037254;28;20165;-78
2021/01/28 04:49:15;;;;;;;1999.90;999.90;;;5.00;99.90;;;;;;5037349;28;20166;-78
2021/01/28 04:51:43;;;;;;;1999.90;999.90;;;5.00;99.90;;;;;;5036733;28;20236;-78
2021/01/28 04:54:22;;;;;;;1999.90;999.90;;;5.00;99.90;;;;;;5036874;28;20169;-78
2021/01/28 04:56:49;;;;;;;1999.90;999.90;;;4.90;99.90;;;;;;5036941;28;20173;-78
2021/01/28 04:59:33;;;;;;;1999.90;999.90;;;5.00;99.90;;;;;;5037916;28;20565;-79
2021/01/28 05:01:59;;;;;;;1999.90;999.90;;;4.90;99.90;;;;;;5018815;28;20196;-78
2021/01/28 05:04:37;;;;;;;1999.90;999.90;;;5.00;99.90;;;;;;5036566;28;20222;-78
2021/01/28 05:07:06;;;;;;;1999.90;999.90;;;4.90;99.90;;;;;;5036561;28;20724;-78
2021/01/28 05:09:33;;;;;;;1999.90;999.90;;;5.00;99.90;;;;;;5036151;28;20253;-78
2021/01/28 05:11:58;;;;;;;1999.90;999.90;;;5.00;99.90;;;;;;5036868;28;20169;-78
2021/01/28 05:14:31;;;;;;;1999.90;999.90;;;4.90;99.90;;;;;;5036328;28;20165;-78
2021/01/28 05:17:04;;;;;;;1999.90;999.90;;;5.00;99.90;;;;;;5035299;28;20149;-78
2021/01/28 05:19:41;;;;;;;1999.90;999.90;;;4.90;99.90;;;;;;5017868;28;20506;-78
2021/01/28 05:22:36;;;;;;;1999.90;999.90;;;4.90;99.90;;;;;;5034409;28;20185;-78
2021/01/28 05:25:12;;;;;;;1999.90;999.90;;;4.90;99.90;;;;;;5035482;28;20239;-78
2021/01/28 05:27:39;;;;;;;1999.90;999.90;;;4.90;99.90;;;;;;5018362;28;20200;-78
2021/01/28 05:30:12;;;;;;;1999.90;999.90;;;4.90;99.90;;;;;;5036204;28;20169;-78
2021/01/28 05:32:49;;;;;;;1999.90;999.90;;;4.90;99.90;;;;;;5035540;28;20547;-78
2021/01/28 05:35:22;;;;;;;1999.90;999.90;;;5.00;99.90;;;;;;5035405;28;20274;-78
2021/01/28 05:38:01;;;;;;;1999.90;999.90;;;4.90;99.90;;;;;;5034760;28;20157;-78
2021/01/28 05:40:28;;;;;;;1999.90;999.90;;;5.00;99.90;;;;;;5036017;28;20157;-78
2021/01/28 05:42:54;;;;;;;1999.90;999.90;;;5.00;99.90;;;;;;5036090;28;20213;-78
2021/01/28 05:45:33;;;;;;;1999.90;999.90;;;5.00;99.90;;;;;;5018800;28;20219;-78
2021/01/28 05:48:27;;;;;;;1999.90;999.90;;;5.00;99.90;;;;;;5036491;28;20165;-78
2021/01/28 05:51:07;;;;;;;1999.90;999.90;;;5.00;99.90;;;;;;5036562;28;20153;-78
2021/01/28 05:53:33;;;;;;;1999.90;999.90;;;5.00;99.90;;;;;;5036556;28;20145;-79
2021/01/28 05:56:07;;;;;;;1999.90;999.90;;;5.00;99.90;;;;;;5037107;28;20219;-78
2021/01/28 05:58:49;;;;;;;1999.90;999.90;;;5.10;99.90;;;;;;5036582;28;20393;-78
2021/01/28 06:01:24;;;;;;;1999.90;999.90;;;5.00;99.90;;;;;;5019094;28;20185;-78
2021/01/28 06:04:09;;;;;;;1999.90;999.90;;;5.00;99.90;;;;;;5036377;28;20156;-78
2021/01/28 06:06:47;;;;;;;1999.90;999.90;;;5.00;99.90;;;;;;5036989;28;20157;-78
2021/01/28 06:09:50;;;;;;;1999.90;999.90;;;5.00;99.90;;;;;;5036829;28;20161;-79
2021/01/28 06:12:29;;;;;;;1999.90;999.90;;;5.10;99.90;;;;;;5036861;28;20189;-79
2021/01/28 06:15:19;;;;;;;1999.90;999.90;;;5.00;99.90;;;;;;5036793;28;20575;-78
2021/01/28 06:18:03;;;;;;;1999.90;999.90;;;5.00;99.90;;;;;;5036715;28;20647;-78
2021/01/28 06:20:47;;;;;;;1999.90;999.90;;;5.00;99.90;;;;;;5036346;28;20636;-78
2021/01/28 06:23:39;;;;;;;1999.90;999.90;;;5.00;99.90;;;;;;5036778;28;20203;-79
2021/01/28 06:26:23;;;;;;;1999.90;999.90;;;5.00;99.90;;;;;;5037068;28;20154;-78
2021/01/28 06:29:10;;;;;;;1999.90;999.90;;;5.00;99.90;;;;;;5036446;28;20142;-78
2021/01/28 06:32:08;;;;;;;1999.90;999.90;;;5.00;99.90;;;;;;5036107;28;20181;-78
2021/01/28 06:35:02;;;;;;;1999.90;999.90;;;5.00;99.90;;;;;;5036199;28;20149;-78
2021/01/28 06:37:51;;;;;;;1999.90;999.90;;;4.90;99.90;;;;;;5018332;28;20173;-78
2021/01/28 06:40:26;;;;;;;1999.90;999.90;;;4.90;99.90;;;;;;5036026;28;20543;-78
2021/01/28 06:43:09;;;;;;;1999.90;999.90;;;4.90;99.90;;;;;;5036241;28;20173;-78
2021/01/28 06:45:52;;;;;;;1999.90;999.90;;;4.90;99.90;;;;;;5019360;28;20161;-78
2021/01/28 06:48:35;;;;;;;1999.90;999.90;;;4.90;99.90;;;;;;5036885;28;20540;-78
2021/01/28 06:51:11;;;;;;;1999.90;999.90;;;5.00;99.90;;;;;;5021513;28;20157;-79
2021/01/28 06:53:42;;;;;;;1999.90;999.90;;;4.90;99.90;;;;;;5039332;28;20255;-78
2021/01/28 06:56:11;;;;;;;1999.90;999.90;;;4.90;99.90;;;;;;5041184;28;20635;-78
2021/01/28 06:58:55;;;;;;;1999.90;999.90;;;5.00;99.90;;;;;;5040986;28;20176;-78
2021/01/28 07:01:45;;;;;;;1999.90;999.90;;;4.90;99.90;;;;;;5041414;28;20203;-79
2021/01/28 07:04:59;;;;;;;1999.90;999.90;;;5.00;99.90;;;;;;5041454;28;20157;-79
2021/01/28 07:07:26;;;;;;;1999.90;999.90;;;4.90;99.90;;;;;;5018135;28;20185;-79
2021/01/28 07:10:06;;;;;;;1999.90;999.90;;;4.90;99.90;;;;;;5040159;28;20169;-79
2021/01/28 07:12:49;;;;;;;1999.90;999.90;;;5.00;99.90;;;;;;5039078;28;20525;-79
2021/01/28 07:15:15;;;;;;;1999.90;999.90;;;5.00;99.90;;;;;;5021977;28;20230;-79
2021/01/28 07:17:52;;;;;;;1999.90;999.90;;;5.00;99.90;;;;;;5039712;28;20169;-79
2021/01/28 07:20:34;;;;;;;1999.90;999.90;;;4.90;99.90;;;;;;5039948;28;20150;-79
2021/01/28 07:23:27;;;;;;;1999.90;999.90;;;4.90;99.90;;;;;;5039873;28;20178;-79
2021/01/28 07:26:15;;;;;;;1999.90;999.90;;;5.00;99.90;;;;;;5039512;28;20200;-79
2021/01/28 07:28:43;;;;;;;1999.90;999.90;;;4.90;99.90;;;;;;5039945;28;20153;-79
2021/01/28 07:31:08;;;;;;;1999.90;999.90;;;4.90;99.90;;;;;;5039517;28;20192;-79
2021/01/28 07:33:41;;;;;;;1999.90;999.90;;;4.90;99.90;;;;;;5021197;28;20169;-79
2021/01/28 07:36:12;;;;;;;1999.90;999.90;;;4.90;99.90;;;;;;5039630;28;20156;-79
2021/01/28 07:38:56;;;;;;;1999.90;999.90;;;4.90;99.90;;;;;;5039171;28;20307;-79
2021/01/28 07:41:37;;;;;;;1999.90;999.90;;;4.90;99.90;;;;;;5021646;28;20199;-79
2021/01/28 07:44:29;;;;;;;1999.90;999.90;;;4.90;99.90;;;;;;5040885;28;20283;-79
2021/01/28 07:46:59;;;;;;;1999.90;999.90;;;4.90;99.90;;;;;;5039220;28;20184;-79
2021/01/28 07:49:28;;;;;;;1999.90;999.90;;;4.90;99.90;;;;;;5039813;28;20181;-79
2021/01/28 07:52:03;;;;;;;1999.90;999.90;;;5.00;99.90;;;;;;5022638;28;20529;-79
2021/01/28 07:54:28;;;;;;;1999.90;999.90;;;5.00;99.90;;;;;;5040189;28;20172;-79
2021/01/28 07:57:00;;;;;;;1999.90;999.90;;;4.90;99.90;;;;;;5040717;28;20166;-79
2021/01/28 07:59:49;;;;;;;1999.90;999.90;;;5.00;99.90;;;;;;5022388;28;20180;-79
2021/01/28 08:02:30;;;;;;;1999.90;999.90;;;5.00;99.90;;;;;;5021965;28;20191;-78
2021/01/28 08:04:59;;;;;;;1999.90;999.90;;;5.00;99.90;;;;;;5022979;28;20157;-79
2021/01/28 08:07:40;;;;;;;1999.90;999.90;;;5.00;99.90;;;;;;5040660;28;20215;-79
2021/01/28 08:10:42;;;;;;;1999.90;999.90;;;5.10;99.90;;;;;;5040730;28;20158;-78
2021/01/28 08:13:26;;;;;;;1999.90;999.90;;;5.00;99.90;;;;;;4972164;28;20173;-77
2021/01/28 08:16:06;;;;;;;1999.90;999.90;;;5.10;99.90;;;;;;5023005;28;20153;-79
2021/01/28 08:18:36;;;;;;;1999.90;999.90;;;5.00;99.90;;;;;;5022725;28;20176;-78
2021/01/28 08:21:25;;;;;;;1999.90;999.90;;;5.00;99.90;;;;;;5022205;28;20611;-78
2021/01/28 08:23:51;;;;;;;1999.90;999.90;;;4.90;99.90;;;;;;5023858;28;20154;-79
2021/01/28 08:26:47;;;;;;;1999.90;999.90;;;5.00;99.90;;;;;;5022343;28;20587;-79
2021/01/28 08:29:21;;;;;;;1999.90;999.90;;;5.00;99.90;;;;;;5019282;28;20419;-78
2021/01/28 08:31:52;;;;;;;1999.90;999.90;;;4.90;99.90;;;;;;5039412;28;20197;-79
2021/01/28 08:34:25;;;;;;;1999.90;999.90;;;4.90;99.90;;;;;;5039982;28;20173;-79
2021/01/28 08:36:51;;;;;;;1999.90;999.90;;;4.90;99.90;;;;;;5040503;28;20209;-79
2021/01/28 08:39:25;;;;;;;1999.90;999.90;;;4.90;99.90;;;;;;5021894;28;20219;-79
2021/01/28 08:42:06;;;;;;;1999.90;999.90;;;4.90;99.90;;;;;;5022221;28;20255;-79
2021/01/28 08:44:34;;;;;;;1999.90;999.90;;;4.90;99.90;;;;;;5039881;28;20173;-78
2021/01/28 08:47:25;;;;;;;1999.90;999.90;;;4.90;99.90;;;;;;5019297;28;20165;-77
2021/01/28 08:50:17;;;;;;;1999.90;999.90;;;4.90;99.90;;;;;;5035534;28;20152;-78
2021/01/28 08:52:44;;;;;;;1999.90;999.90;;;4.90;99.90;;;;;;5020977;28;20166;-79
2021/01/28 08:55:14;;;;;;;1999.90;999.90;;;4.90;99.90;;;;;;5039585;28;20555;-80
2021/01/28 08:57:39;;;;;;;1999.90;999.90;;;4.90;99.90;;;;;;5022194;28;20176;-79
2021/01/28 09:00:10;;;;;;;1999.90;999.90;;;4.90;99.90;;;;;;5040040;28;20165;-79
2021/01/28 09:02:40;;;;;;;1999.90;999.90;;;4.90;99.90;;;;;;5022529;28;20475;-78
2021/01/28 09:05:30;;;;;;;1999.90;999.90;;;4.90;99.90;;;;;;5039894;28;20146;-80
2021/01/28 09:08:04;;;;;;;1999.90;999.90;;;4.90;99.90;;;;;;5021313;28;20161;-79
2021/01/28 09:10:41;;;;;;;1999.90;999.90;;;4.90;99.90;;;;;;5020743;28;20159;-79
2021/01/28 09:13:31;;;;;;;1999.90;999.90;;;4.90;99.90;;;;;;5038176;28;20153;-79
2021/01/28 09:16:16;;;;;;;1999.90;999.90;;;4.90;99.90;;;;;;5037876;28;20142;-78
2021/01/28 09:18:48;;;;;;;1999.90;999.90;;;5.00;99.90;;;;;;5020272;28;20164;-79
2021/01/28 09:21:22;;;;;;;1999.90;999.90;;;5.00;99.90;;;;;;5020670;28;20201;-79
2021/01/28 09:24:04;;;;;;;1999.90;999.90;;;4.90;99.90;;;;;;5021707;28;20203;-79
2021/01/28 09:26:31;;;;;;;1999.90;999.90;;;5.00;99.90;;;;;;5039040;28;20169;-79
2021/01/28 09:29:17;;;;;;;1999.90;999.90;;;5.00;99.90;;;;;;5040077;28;20157;-79
2021/01/28 09:31:43;;;;;;;1999.90;999.90;;;5.00;99.90;;;;;;5038991;28;20730;-79
2021/01/28 09:34:15;;;;;;;1999.90;999.90;;;5.10;99.90;;;;;;5021278;28;20173;-79
2021/01/28 09:36:42;;;;;;;1999.90;999.90;;;5.10;99.90;;;;;;5038933;28;20204;-79
2021/01/28 09:41:44;;;;;;;1999.90;999.90;;;5.10;99.90;;;;;;5033857;28;20231;-79
2021/01/28 09:44:36;;;;;;;1999.90;999.90;;;5.10;99.90;;;;;;5035803;28;20161;-79
2021/01/28 09:47:15;;;;;;;1999.90;999.90;;;5.10;99.90;;;;;;5018604;28;20153;-79
2021/01/28 09:49:42;;;;;;;1999.90;999.90;;;5.20;99.90;;;;;;5018605;28;20161;-80
2021/01/28 09:52:30;;;;;;;1999.90;999.90;;;5.20;99.90;;;;;;5018451;28;20199;-79
2021/01/28 09:55:01;;;;;;;1999.90;999.90;;;5.20;99.90;;;;;;5036064;28;20647;-79
2021/01/28 09:57:27;;;;;;;1999.90;999.90;;;5.20;99.90;;;;;;5036153;28;20214;-79
2021/01/28 09:59:54;;;;;;;1999.90;999.90;;;5.20;99.90;;;;;;5018772;28;20169;-79
2021/01/28 10:02:24;;;;;;;1999.90;999.90;;;5.20;99.90;;;;;;5036017;28;20671;-79
2021/01/28 10:04:50;;;;;;;1999.90;999.90;;;5.30;99.90;;;;;;5036584;28;20146;-79
2021/01/28 10:07:16;;;;;;;1999.90;999.90;;;5.30;99.90;;;;;;5035681;28;20788;-80
2021/01/28 10:09:43;;;;;;;1999.90;999.90;;;5.30;99.90;;;;;;5035820;28;20165;-80
2021/01/28 10:12:11;;;;;;;1999.90;999.90;;;5.40;99.90;;;;;;5035698;28;20161;-79
2021/01/28 10:14:36;;;;;;;1999.90;999.90;;;5.40;99.90;;;;;;5035729;28;20169;-80
2021/01/28 10:17:02;;;;;;;1999.90;999.90;;;5.30;99.90;;;;;;5036053;28;20172;-79
2021/01/28 10:19:28;;;;;;;1999.90;999.90;;;5.40;99.90;;;;;;5035666;28;20200;-79
2021/01/28 10:21:53;;;;;;;1999.90;999.90;;;5.40;99.90;;;;;;5017733;28;20216;-79
2021/01/28 10:24:19;;;;;;;1999.90;999.90;;;5.40;99.90;;;;;;5035761;28;20162;-80
2021/01/28 10:26:45;;;;;;;1999.90;999.90;;;5.40;99.90;;;;;;5022156;28;20520;-80
2021/01/28 10:29:10;;;;;;;1999.90;999.90;;;5.50;99.90;;;;;;5040535;28;20197;-79
2021/01/28 10:31:36;;;;;;;1999.90;999.90;;;5.60;99.90;;;;;;5040574;28;20173;-79
2021/01/28 10:34:02;;;;;;;1999.90;999.90;;;5.60;99.90;;;;;;5039929;28;20165;-79
2021/01/28 10:36:27;;;;;;;1999.90;999.90;;;5.60;99.90;;;;;;5039583;28;20292;-79
2021/01/28 10:38:53;;;;;;;1999.90;999.90;;;5.70;99.90;;;;;;5039295;28;20166;-79
2021/01/28 10:41:22;;;;;;;1999.90;999.90;;;5.70;99.90;;;;;;5038407;28;20197;-79
2021/01/28 10:43:47;;;;;;;1999.90;999.90;;;5.60;99.90;;;;;;5039588;28;20161;-79
2021/01/28 10:46:13;;;;;;;1999.90;999.90;;;5.60;99.90;;;;;;5021645;28;20165;-79
2021/01/28 10:48:39;;;;;;;1999.90;999.90;;;5.60;99.90;;;;;;5038866;28;20203;-79
2021/01/28 10:51:05;;;;;;;1999.90;999.90;;;5.60;99.90;;;;;;5039347;28;20248;-79
2021/01/28 10:53:33;;;;;;;1999.90;999.90;;;5.60;99.90;;;;;;5020570;28;20255;-79
2021/01/28 10:55:59;;;;;;;1999.90;999.90;;;5.60;99.90;;;;;;5021850;28;20165;-80
2021/01/28 10:58:26;;;;;;;1999.90;999.90;;;5.60;99.90;;;;;;5039134;28;20530;-80
2021/01/28 11:00:53;;;;;;;1999.90;999.90;;;5.60;99.90;;;;;;5039603;28;20251;-80
2021/01/28 11:03:19;;;;;;;1999.90;999.90;;;5.60;99.90;;;;;;5021568;28;20170;-80
2021/01/28 11:05:49;;;;;;;1999.90;999.90;;;5.70;99.90;;;;;;5039131;28;20161;-79
2021/01/28 11:08:15;;;;;;;1999.90;999.90;;;5.70;99.90;;;;;;5039553;28;20153;-80
2021/01/28 11:10:40;;;;;;;1999.90;999.90;;;5.70;99.90;;;;;;5038824;28;20157;-79
2021/01/28 11:13:06;;;;;;;1999.90;999.90;;;5.70;99.90;;;;;;5039194;28;20641;-80
2021/01/28 11:15:36;;;;;;;1999.90;999.90;;;5.70;99.90;;;;;;5038181;28;20169;-80
2021/01/28 11:18:02;;;;;;;1999.90;999.90;;;5.80;99.90;;;;;;5021105;28;20644;-79
2021/01/28 11:20:28;;;;;;;1999.90;999.90;;;5.80;99.90;;;;;;5038439;28;20169;-80
2021/01/28 11:22:54;;;;;;;1999.90;999.90;;;5.80;99.90;;;;;;5038757;28;20401;-80
2021/01/28 11:25:22;;;;;;;1999.90;999.90;;;5.90;99.90;;;;;;5038428;28;20248;-80
2021/01/28 11:27:48;;;;;;;1999.90;999.90;;;5.90;99.90;;;;;;5038582;28;20169;-79
2021/01/28 11:30:17;;;;;;;1999.90;999.90;;;6.00;99.90;;;;;;5020894;28;20176;-79
2021/01/28 11:32:43;;;;;;;1999.90;999.90;;;6.00;99.90;;;;;;5037619;28;20414;-79
2021/01/28 11:35:09;;;;;;;1999.90;999.90;;;6.00;99.90;;;;;;5038089;28;20252;-80
2021/01/28 11:37:35;;;;;;;1999.90;999.90;;;6.10;99.90;;;;;;5038675;28;20204;-79
2021/01/28 11:40:04;;;;;;;1999.90;999.90;;;6.10;99.90;;;;;;5038324;28;20189;-79
2021/01/28 11:42:29;;;;;;;1999.90;999.90;;;6.10;99.90;;;;;;5038165;28;20201;-80
2021/01/28 11:44:55;;;;;;;1999.90;999.90;;;6.30;99.90;;;;;;5020252;28;20285;-79
2021/01/28 11:47:20;;;;;;;1999.90;999.90;;;6.30;99.90;;;;;;5037634;28;20215;-79
2021/01/28 11:49:48;;;;;;;1999.90;999.90;;;6.40;99.90;;;;;;5037791;28;20192;-79
2021/01/28 11:52:17;;;;;;;1999.90;999.90;;;6.30;99.90;;;;;;5038918;28;20166;-79
2021/01/28 11:54:42;;;;;;;1999.90;999.90;;;6.30;99.90;;;;;;5039209;28;20195;-79
2021/01/28 11:57:08;;;;;;;1999.90;999.90;;;6.30;99.90;;;;;;5038600;28;20165;-79
2021/01/28 11:59:33;;;;;;;1999.90;999.90;;;6.30;99.90;;;;;;5038466;28;20251;-79
2021/01/28 12:01:59;;;;;;;1999.90;999.90;;;6.40;99.90;;;;;;5038441;28;20193;-79
2021/01/28 12:04:25;;;;;;;1999.90;999.90;;;6.50;99.90;;;;;;5037770;28;20253;-80
2021/01/28 12:06:50;;;;;;;1999.90;999.90;;;6.50;99.90;;;;;;5019991;28;20165;-80
2021/01/28 12:09:16;;;;;;;1999.90;999.90;;;6.50;99.90;;;;;;5038333;28;20184;-79
2021/01/28 12:11:42;;;;;;;1999.90;999.90;;;6.60;99.90;;;;;;5038147;28;20537;-79
2021/01/28 12:14:07;;;;;;;1999.90;999.90;;;6.60;99.90;;;;;;5038011;28;20525;-80
2021/01/28 12:16:36;;;;;;;1999.90;999.90;;;6.60;99.90;;;;;;5020477;28;20169;-79
2021/01/28 12:19:01;;;;;;;1999.90;999.90;;;6.50;99.90;;;;;;5020585;28;20180;-79
2021/01/28 12:21:29;;;;;;;1999.90;999.90;;;6.60;99.90;;;;;;5038023;28;20189;-79
2021/01/28 12:23:54;;;;;;;1999.90;999.90;;;6.60;99.90;;;;;;5019821;28;20636;-78
2021/01/28 12:26:22;;;;;;;1999.90;999.90;;;6.60;99.90;;;;;;5037053;28;20161;-79
2021/01/28 12:28:48;;;;;;;1999.90;999.90;;;6.60;99.90;;;;;;5019805;28;20169;-79
2021/01/28 12:31:14;;;;;;;1999.90;999.90;;;6.70;99.90;;;;;;5037609;28;20168;-78